createdAt,value
2023-04-23T00:00:53.455Z,14.77
2023-04-23T00:01:58.292Z,14.85
2023-04-23T00:03:02.615Z,14.81
2023-04-23T00:04:10.083Z,14.83
2023-04-23T00:05:14.740Z,14.77
2023-04-23T00:06:19.007Z,14.80
2023-04-23T00:07:21.911Z,14.81
2023-04-23T00:08:27.578Z,14.75
2023-04-23T00:09:32.301Z,14.71
2023-04-23T00:10:36.452Z,14.77
2023-04-23T00:11:39.556Z,14.77
2023-04-23T00:12:44.107Z,14.75
2023-04-23T00:13:48.744Z,14.78
2023-04-23T00:14:52.109Z,14.84
2023-04-23T00:15:59.459Z,14.81
2023-04-23T00:17:03.447Z,14.69
2023-04-23T00:18:06.954Z,14.70
2023-04-23T00:19:10.360Z,14.59
2023-04-23T00:20:13.868Z,14.63
2023-04-23T00:21:19.449Z,14.58
2023-04-23T00:22:22.936Z,14.54
2023-04-23T00:23:28.549Z,14.54
2023-04-23T00:24:32.784Z,14.56
2023-04-23T00:25:35.441Z,14.56
2023-04-23T00:26:38.855Z,14.55
2023-04-23T00:27:41.737Z,14.51
2023-04-23T00:28:43.980Z,14.53
2023-04-23T00:29:47.282Z,14.56
2023-04-23T00:30:50.787Z,14.57
2023-04-23T00:31:54.465Z,14.61
2023-04-23T00:32:57.299Z,14.61
2023-04-23T00:34:01.109Z,14.65
2023-04-23T00:35:07.189Z,14.68
2023-04-23T00:36:10.618Z,14.70
2023-04-23T00:37:14.425Z,14.74
2023-04-23T00:38:17.661Z,14.75
2023-04-23T00:39:21.442Z,14.81
2023-04-23T00:40:24.668Z,14.80
2023-04-23T00:41:30.117Z,14.69
2023-04-23T00:42:35.653Z,14.69
2023-04-23T00:43:41.089Z,14.66
2023-04-23T00:44:44.574Z,14.59
2023-04-23T00:45:51.024Z,14.62
2023-04-23T00:46:55.685Z,14.63
2023-04-23T00:48:00.113Z,14.61
2023-04-23T00:49:03.208Z,14.62
2023-04-23T00:50:09.537Z,14.65
2023-04-23T00:51:13.286Z,14.64
2023-04-23T00:52:19.581Z,14.66
2023-04-23T00:53:23.297Z,14.63
2023-04-23T00:54:27.013Z,14.60
2023-04-23T00:55:30.722Z,14.53
2023-04-23T00:56:34.551Z,14.55
2023-04-23T00:57:38.490Z,14.52
2023-04-23T00:58:42.490Z,14.52
2023-04-23T00:59:45.468Z,14.58
2023-04-23T01:00:48.911Z,14.56
2023-04-23T01:01:53.422Z,14.53
2023-04-23T01:02:58.753Z,14.53
2023-04-23T01:04:02.336Z,14.55
2023-04-23T01:05:08.507Z,14.58
2023-04-23T01:06:12.876Z,14.50
2023-04-23T01:07:16.382Z,14.54
2023-04-23T01:09:33.417Z,14.69
2023-04-23T01:10:35.979Z,14.59
2023-04-23T01:11:39.268Z,14.52
2023-04-23T01:12:42.357Z,14.52
2023-04-23T01:13:45.227Z,14.51
2023-04-23T01:14:48.671Z,14.54
2023-04-23T01:15:58.742Z,14.56
2023-04-23T01:17:04.590Z,14.48
2023-04-23T01:18:08.875Z,14.41
2023-04-23T01:19:12.375Z,14.41
2023-04-23T01:20:16.083Z,14.39
2023-04-23T01:21:19.425Z,14.31
2023-04-23T01:22:23.660Z,14.31
2023-04-23T01:23:30.160Z,14.38
2023-04-23T01:25:48.241Z,14.51
2023-04-23T01:26:52.468Z,14.43
2023-04-23T01:27:56.525Z,14.43
2023-04-23T01:29:00.387Z,14.42
2023-04-23T01:30:04.896Z,14.42
2023-04-23T01:31:10.261Z,14.40
2023-04-23T01:32:14.492Z,14.36
2023-04-23T01:33:18.206Z,14.35
2023-04-23T01:34:22.577Z,14.38
2023-04-23T01:35:30.047Z,14.38
2023-04-23T01:36:33.636Z,14.32
2023-04-23T01:37:40.199Z,14.29
2023-04-23T01:38:43.344Z,14.26
2023-04-23T01:39:46.236Z,14.23
2023-04-23T01:40:49.842Z,14.23
2023-04-23T01:41:54.078Z,14.18
2023-04-23T01:42:57.792Z,14.19
2023-04-23T01:44:00.153Z,14.13
2023-04-23T01:45:04.057Z,14.18
2023-04-23T01:46:09.115Z,14.19
2023-04-23T01:47:14.284Z,14.21
2023-04-23T01:48:18.347Z,14.25
2023-04-23T01:49:21.956Z,14.23
2023-04-23T01:50:27.029Z,14.22
2023-04-23T01:51:32.298Z,14.18
2023-04-23T01:52:35.800Z,14.04
2023-04-23T01:53:38.410Z,14.09
2023-04-23T01:54:42.115Z,14.11
2023-04-23T01:55:47.431Z,14.10
2023-04-23T01:56:50.457Z,14.16
2023-04-23T01:57:55.112Z,14.19
2023-04-23T01:59:00.183Z,14.14
2023-04-23T02:00:07.872Z,14.15
2023-04-23T02:01:12.958Z,14.13
2023-04-23T02:02:16.360Z,14.07
2023-04-23T02:03:19.953Z,14.04
2023-04-23T02:04:23.585Z,14.00
2023-04-23T02:05:29.382Z,13.94
2023-04-23T02:06:34.107Z,13.95
2023-04-23T02:07:37.628Z,13.98
2023-04-23T02:08:41.757Z,13.93
2023-04-23T02:09:46.824Z,13.94
2023-04-23T02:10:51.271Z,13.94
2023-04-23T02:11:54.661Z,13.93
2023-04-23T02:13:00.573Z,13.93
2023-04-23T02:14:04.598Z,13.92
2023-04-23T02:15:09.870Z,13.83
2023-04-23T02:16:13.562Z,13.77
2023-04-23T02:17:16.794Z,13.83
2023-04-23T02:18:21.053Z,13.83
2023-04-23T02:19:25.579Z,13.80
2023-04-23T02:20:30.964Z,13.75
2023-04-23T02:21:34.144Z,13.73
2023-04-23T02:22:39.730Z,13.72
2023-04-23T02:23:43.245Z,13.71
2023-04-23T02:24:46.853Z,13.70
2023-04-23T02:25:52.578Z,13.73
2023-04-23T02:26:56.381Z,13.71
2023-04-23T02:28:01.036Z,13.75
2023-04-23T02:29:04.540Z,13.73
2023-04-23T02:30:11.782Z,13.65
2023-04-23T02:31:14.909Z,13.49
2023-04-23T02:32:18.444Z,13.44
2023-04-23T02:33:23.679Z,13.50
2023-04-23T02:34:27.709Z,13.60
2023-04-23T02:35:30.927Z,13.58
2023-04-23T02:36:37.057Z,13.63
2023-04-23T02:37:40.943Z,13.61
2023-04-23T02:38:45.134Z,13.46
2023-04-23T02:39:48.752Z,13.48
2023-04-23T02:40:51.444Z,13.47
2023-04-23T02:41:54.853Z,13.46
2023-04-23T02:42:58.253Z,13.46
2023-04-23T02:44:01.571Z,13.40
2023-04-23T02:45:07.589Z,13.47
2023-04-23T02:46:11.066Z,13.40
2023-04-23T02:47:14.670Z,13.33
2023-04-23T02:48:18.479Z,13.32
2023-04-23T02:49:21.994Z,13.31
2023-04-23T02:50:25.281Z,13.38
2023-04-23T02:51:27.529Z,13.33
2023-04-23T02:52:29.935Z,13.34
2023-04-23T02:53:33.429Z,13.25
2023-04-23T02:54:39.961Z,13.26
2023-04-23T02:55:43.756Z,13.22
2023-04-23T02:56:47.368Z,13.25
2023-04-23T02:57:50.346Z,13.27
2023-04-23T02:58:52.761Z,13.28
2023-04-23T02:59:56.106Z,13.23
2023-04-23T03:01:01.135Z,13.27
2023-04-23T03:02:05.114Z,13.35
2023-04-23T03:03:09.034Z,13.41
2023-04-23T03:04:13.182Z,13.42
2023-04-23T03:05:16.866Z,13.46
2023-04-23T03:06:20.522Z,13.50
2023-04-23T03:07:23.981Z,13.52
2023-04-23T03:08:27.508Z,13.58
2023-04-23T03:09:31.199Z,13.54
2023-04-23T03:10:34.729Z,13.59
2023-04-23T03:11:39.905Z,13.63
2023-04-23T03:12:44.257Z,13.60
2023-04-23T03:13:47.935Z,13.60
2023-04-23T03:14:50.593Z,13.66
2023-04-23T03:15:54.829Z,13.67
2023-04-23T03:16:58.342Z,13.67
2023-04-23T03:18:01.964Z,13.64
2023-04-23T03:19:05.271Z,13.51
2023-04-23T03:20:12.046Z,13.45
2023-04-23T03:21:14.890Z,13.48
2023-04-23T03:22:18.366Z,13.51
2023-04-23T03:23:20.727Z,13.58
2023-04-23T03:24:24.470Z,13.49
2023-04-23T03:25:28.285Z,13.54
2023-04-23T03:26:32.190Z,13.59
2023-04-23T03:27:40.164Z,13.63
2023-04-23T03:28:43.680Z,13.63
2023-04-23T03:29:47.301Z,13.60
2023-04-23T03:30:51.017Z,13.70
2023-04-23T03:31:53.661Z,13.75
2023-04-23T03:32:57.581Z,13.61
2023-04-23T03:34:00.819Z,13.64
2023-04-23T03:35:06.534Z,13.58
2023-04-23T03:36:09.162Z,13.60
2023-04-23T03:37:13.920Z,13.73
2023-04-23T03:38:17.097Z,13.81
2023-04-23T03:39:20.715Z,13.91
2023-04-23T03:40:28.318Z,13.94
2023-04-23T03:41:33.785Z,13.99
2023-04-23T03:42:37.190Z,13.96
2023-04-23T03:43:40.971Z,13.96
2023-04-23T03:44:54.636Z,13.97
2023-04-23T03:45:58.545Z,14.11
2023-04-23T03:47:03.744Z,14.18
2023-04-23T03:48:09.561Z,14.23
2023-04-23T03:49:14.690Z,14.22
2023-04-23T03:50:18.005Z,14.30
2023-04-23T03:51:22.556Z,14.23
2023-04-23T03:52:25.556Z,14.25
2023-04-23T03:53:29.490Z,14.24
2023-04-23T03:54:53.278Z,14.28
2023-04-23T03:55:58.526Z,14.36
2023-04-23T03:57:02.577Z,14.48
2023-04-23T03:58:09.817Z,14.39
2023-04-23T03:59:15.215Z,14.45
2023-04-23T04:00:19.353Z,14.53
2023-04-23T04:01:21.706Z,14.57
2023-04-23T04:02:24.759Z,14.71
2023-04-23T04:03:29.937Z,14.75
2023-04-23T04:04:36.561Z,14.68
2023-04-23T04:05:40.953Z,14.81
2023-04-23T04:06:43.603Z,14.91
2023-04-23T04:07:47.212Z,14.99
2023-04-23T04:08:50.938Z,15.14
2023-04-23T04:09:54.004Z,15.08
2023-04-23T04:10:59.506Z,15.11
2023-04-23T04:12:04.574Z,15.04
2023-04-23T04:13:07.971Z,15.16
2023-04-23T04:14:11.376Z,15.19
2023-04-23T04:15:18.119Z,15.32
2023-04-23T04:16:21.394Z,15.23
2023-04-23T04:17:25.178Z,15.25
2023-04-23T04:18:29.803Z,15.35
2023-04-23T04:19:32.660Z,15.39
2023-04-23T04:20:36.914Z,15.45
2023-04-23T04:21:41.227Z,15.54
2023-04-23T04:22:45.891Z,15.49
2023-04-23T04:23:50.580Z,15.56
2023-04-23T04:24:54.780Z,15.49
2023-04-23T04:25:58.263Z,15.63
2023-04-23T04:27:01.459Z,15.73
2023-04-23T04:28:07.582Z,15.83
2023-04-23T04:29:11.621Z,15.75
2023-04-23T04:30:14.987Z,15.78
2023-04-23T04:31:20.663Z,15.90
2023-04-23T04:32:25.037Z,15.93
2023-04-23T04:33:28.761Z,15.93
2023-04-23T04:34:32.067Z,15.99
2023-04-23T04:35:34.527Z,15.97
2023-04-23T04:36:42.006Z,16.00
2023-04-23T04:37:45.222Z,16.09
2023-04-23T04:38:48.535Z,16.14
2023-04-23T04:39:53.006Z,16.09
2023-04-23T04:41:01.498Z,16.19
2023-04-23T04:42:07.894Z,16.26
2023-04-23T04:43:10.761Z,16.37
2023-04-23T04:44:14.998Z,16.44
2023-04-23T04:45:18.209Z,16.46
2023-04-23T04:46:21.794Z,16.54
2023-04-23T04:47:25.232Z,16.46
2023-04-23T04:48:31.309Z,16.51
2023-04-23T04:49:36.101Z,16.49
2023-04-23T04:50:39.783Z,16.39
2023-04-23T04:51:43.091Z,16.35
2023-04-23T04:52:46.485Z,16.38
2023-04-23T04:53:50.204Z,16.43
2023-04-23T04:54:52.385Z,16.37
2023-04-23T04:55:57.188Z,16.18
2023-04-23T04:57:02.797Z,16.22
2023-04-23T04:58:06.504Z,16.19
2023-04-23T04:59:09.651Z,16.11
2023-04-23T05:00:20.614Z,16.28
2023-04-23T05:01:26.707Z,16.22
2023-04-23T05:02:30.354Z,16.27
2023-04-23T05:03:33.326Z,16.08
2023-04-23T05:04:38.003Z,16.10
2023-04-23T05:05:41.612Z,16.23
2023-04-23T05:06:51.264Z,16.26
2023-04-23T05:07:59.809Z,16.48
2023-04-23T05:09:03.200Z,16.51
2023-04-23T05:10:07.000Z,16.64
2023-04-23T05:11:10.102Z,16.69
2023-04-23T05:12:14.768Z,16.66
2023-04-23T05:13:18.173Z,16.71
2023-04-23T05:14:20.603Z,16.54
2023-04-23T05:15:24.316Z,16.54
2023-04-23T05:16:27.515Z,16.76
2023-04-23T05:17:31.032Z,17.02
2023-04-23T05:18:33.265Z,17.29
2023-04-23T05:19:36.875Z,17.44
2023-04-23T05:20:40.166Z,17.72
2023-04-23T05:21:43.486Z,17.53
2023-04-23T05:22:47.397Z,17.47
2023-04-23T05:23:50.790Z,17.78
2023-04-23T05:24:55.746Z,17.98
2023-04-23T05:25:59.581Z,18.00
2023-04-23T05:27:03.070Z,18.09
2023-04-23T05:28:09.222Z,18.13
2023-04-23T05:29:13.744Z,18.08
2023-04-23T05:30:16.994Z,18.35
2023-04-23T05:31:19.705Z,18.66
2023-04-23T05:32:24.519Z,18.95
2023-04-23T05:33:39.257Z,18.95
2023-04-23T05:34:39.065Z,18.68
2023-04-23T05:35:42.702Z,19.25
2023-04-23T05:36:47.679Z,19.29
2023-04-23T05:37:52.023Z,19.25
2023-04-23T05:38:55.321Z,19.66
2023-04-23T05:39:58.373Z,20.27
2023-04-23T05:41:00.744Z,20.51
2023-04-23T05:42:04.388Z,20.09
2023-04-23T05:43:09.226Z,19.91
2023-04-23T05:44:12.374Z,19.64
2023-04-23T05:45:15.387Z,19.47
2023-04-23T05:46:21.187Z,19.66
2023-04-23T05:47:24.121Z,19.84
2023-04-23T05:48:28.541Z,20.06
2023-04-23T05:49:34.850Z,20.40
2023-04-23T05:50:38.029Z,20.50
2023-04-23T05:51:40.714Z,20.63
2023-04-23T05:52:43.999Z,20.66
2023-04-23T05:53:47.236Z,20.26
2023-04-23T05:54:50.569Z,20.26
2023-04-23T05:55:54.210Z,20.33
2023-04-23T05:56:58.861Z,20.26
2023-04-23T05:58:02.980Z,20.18
2023-04-23T05:59:06.393Z,20.38
2023-04-23T06:00:09.368Z,20.92
2023-04-23T06:01:18.730Z,21.09
2023-04-23T06:02:24.747Z,21.25
2023-04-23T06:03:26.777Z,21.50
2023-04-23T06:04:30.821Z,21.10
2023-04-23T06:05:34.615Z,21.15
2023-04-23T06:06:37.808Z,22.37
2023-04-23T06:07:42.057Z,24.04
2023-04-23T06:08:45.014Z,23.84
2023-04-23T06:09:51.340Z,23.52
2023-04-23T06:10:57.664Z,23.15
2023-04-23T06:12:01.728Z,23.11
2023-04-23T06:13:04.998Z,23.22
2023-04-23T06:14:07.456Z,23.48
2023-04-23T06:15:12.252Z,23.11
2023-04-23T06:16:15.606Z,22.98
2023-04-23T06:17:19.018Z,24.06
2023-04-23T06:18:23.097Z,24.48
2023-04-23T06:19:26.760Z,24.43
2023-04-23T06:20:30.805Z,24.19
2023-04-23T06:21:37.227Z,23.54
2023-04-23T06:22:46.610Z,24.07
2023-04-23T06:23:50.611Z,23.85
2023-04-23T06:24:53.751Z,24.06
2023-04-23T06:25:57.408Z,24.82
2023-04-23T06:27:01.015Z,24.98
2023-04-23T06:28:08.621Z,24.93
2023-04-23T06:29:14.703Z,26.19
2023-04-23T06:30:22.910Z,27.44
2023-04-23T06:31:26.111Z,28.41
2023-04-23T06:32:29.459Z,26.91
2023-04-23T06:33:31.759Z,26.81
2023-04-23T06:34:43.941Z,27.71
2023-04-23T06:35:42.217Z,28.97
2023-04-23T06:36:45.572Z,29.76
2023-04-23T06:37:49.780Z,29.64
2023-04-23T06:38:52.932Z,29.73
2023-04-23T06:39:59.809Z,30.20
2023-04-23T06:41:03.091Z,30.60
2023-04-23T06:42:06.476Z,30.67
2023-04-23T06:43:14.906Z,29.65
2023-04-23T06:44:33.028Z,28.71
2023-04-23T06:45:37.781Z,29.39
2023-04-23T06:46:45.025Z,29.20
2023-04-23T06:47:51.424Z,28.62
2023-04-23T06:48:54.656Z,30.47
2023-04-23T06:50:00.420Z,31.45
2023-04-23T06:51:03.864Z,32.44
2023-04-23T06:52:08.212Z,33.06
2023-04-23T06:53:11.352Z,32.88
2023-04-23T06:54:17.812Z,34.30
2023-04-23T06:55:21.756Z,35.49
2023-04-23T06:56:25.270Z,35.41
2023-04-23T06:57:30.468Z,35.51
2023-04-23T06:58:34.045Z,35.08
2023-04-23T06:59:38.804Z,34.91
2023-04-23T07:00:42.737Z,35.15
2023-04-23T07:01:46.652Z,35.81
2023-04-23T07:02:51.252Z,35.16
2023-04-23T07:03:55.258Z,35.68
2023-04-23T07:04:57.473Z,36.11
2023-04-23T07:06:03.188Z,36.54
2023-04-23T07:07:08.282Z,35.75
2023-04-23T07:08:12.188Z,36.17
2023-04-23T07:09:14.422Z,36.39
2023-04-23T07:10:18.103Z,36.37
2023-04-23T07:11:21.744Z,37.01
2023-04-23T07:12:25.265Z,36.83
2023-04-23T07:13:28.806Z,36.38
2023-04-23T07:14:32.293Z,36.44
2023-04-23T07:15:36.864Z,36.92
2023-04-23T07:16:40.181Z,36.85
2023-04-23T07:17:43.200Z,36.64
2023-04-23T07:18:45.673Z,36.14
2023-04-23T07:19:49.389Z,36.16
2023-04-23T07:20:52.569Z,35.35
2023-04-23T07:21:55.765Z,34.58
2023-04-23T07:23:00.772Z,34.83
2023-04-23T07:24:05.764Z,34.98
2023-04-23T07:25:09.959Z,35.84
2023-04-23T07:26:13.262Z,35.97
2023-04-23T07:27:16.561Z,35.88
2023-04-23T07:28:20.249Z,35.67
2023-04-23T07:29:25.941Z,35.61
2023-04-23T07:30:29.456Z,34.90
2023-04-23T07:31:32.743Z,34.53
2023-04-23T07:32:37.374Z,34.72
2023-04-23T07:33:40.596Z,34.70
2023-04-23T07:34:45.041Z,34.55
2023-04-23T07:35:48.430Z,34.28
2023-04-23T07:36:51.736Z,35.15
2023-04-23T07:37:56.613Z,34.60
2023-04-23T07:38:58.852Z,34.67
2023-04-23T07:40:03.087Z,34.39
2023-04-23T07:41:07.677Z,34.83
2023-04-23T07:42:11.148Z,35.60
2023-04-23T07:43:14.637Z,34.55
2023-04-23T07:44:17.637Z,34.61
2023-04-23T07:45:21.520Z,34.41
2023-04-23T07:46:24.780Z,34.83
2023-04-23T07:47:31.286Z,34.44
2023-04-23T07:48:34.249Z,34.70
2023-04-23T07:49:36.617Z,34.80
2023-04-23T07:50:41.164Z,33.40
2023-04-23T07:51:43.523Z,33.30
2023-04-23T07:52:47.367Z,32.78
2023-04-23T07:53:51.993Z,33.37
2023-04-23T07:54:56.251Z,33.26
2023-04-23T07:56:00.671Z,33.93
2023-04-23T07:57:03.961Z,33.33
2023-04-23T07:58:07.608Z,33.29
2023-04-23T07:59:12.851Z,33.06
2023-04-23T08:00:20.460Z,32.83
2023-04-23T08:01:23.423Z,33.27
2023-04-23T08:02:28.256Z,32.62
2023-04-23T08:03:32.678Z,32.35
2023-04-23T08:04:36.264Z,31.69
2023-04-23T08:05:40.730Z,32.04
2023-04-23T08:06:44.084Z,32.33
2023-04-23T08:07:47.486Z,31.98
2023-04-23T08:08:53.095Z,31.17
2023-04-23T08:09:56.262Z,30.86
2023-04-23T08:11:02.354Z,31.19
2023-04-23T08:12:06.303Z,31.44
2023-04-23T08:13:08.658Z,31.16
2023-04-23T08:14:13.417Z,30.72
2023-04-23T08:15:16.838Z,30.69
2023-04-23T08:16:20.224Z,30.84
2023-04-23T08:17:23.105Z,30.50
2023-04-23T08:18:26.812Z,29.90
2023-04-23T08:19:32.539Z,30.30
2023-04-23T08:20:36.112Z,30.50
2023-04-23T08:21:39.619Z,30.57
2023-04-23T08:22:43.020Z,30.50
2023-04-23T08:23:46.729Z,30.00
2023-04-23T08:24:54.273Z,29.98
2023-04-23T08:25:56.475Z,29.38
2023-04-23T08:27:00.588Z,28.74
2023-04-23T08:28:05.714Z,28.55
2023-04-23T08:29:11.700Z,28.93
2023-04-23T08:30:15.363Z,29.05
2023-04-23T08:31:25.916Z,29.13
2023-04-23T08:32:25.647Z,29.11
2023-04-23T08:33:29.037Z,29.43
2023-04-23T08:34:35.157Z,28.68
2023-04-23T08:35:38.136Z,28.84
2023-04-23T08:36:41.665Z,28.86
2023-04-23T08:37:45.257Z,28.70
2023-04-23T08:38:47.716Z,28.37
2023-04-23T08:39:52.260Z,28.79
2023-04-23T08:40:56.806Z,29.29
2023-04-23T08:42:03.134Z,29.24
2023-04-23T08:43:09.363Z,29.55
2023-04-23T08:44:26.371Z,29.08
2023-04-23T08:45:30.062Z,28.81
2023-04-23T08:46:35.450Z,28.88
2023-04-23T08:47:42.429Z,29.33
2023-04-23T08:48:49.114Z,29.28
2023-04-23T08:49:57.730Z,29.35
2023-04-23T08:51:03.024Z,29.46
2023-04-23T08:52:08.208Z,29.17
2023-04-23T08:53:13.718Z,29.27
2023-04-23T08:54:17.729Z,29.47
2023-04-23T08:55:23.093Z,29.24
2023-04-23T08:56:29.149Z,28.96
2023-04-23T08:57:33.574Z,29.26
2023-04-23T08:58:37.421Z,29.48
2023-04-23T08:59:42.866Z,28.89
2023-04-23T09:00:45.774Z,27.40
2023-04-23T09:01:49.051Z,26.56
2023-04-23T09:02:52.048Z,25.66
2023-04-23T09:03:56.878Z,25.44
2023-04-23T09:05:01.635Z,26.35
2023-04-23T09:06:04.624Z,27.49
2023-04-23T09:07:11.741Z,28.10
2023-04-23T09:08:15.085Z,28.03
2023-04-23T09:09:19.135Z,27.63
2023-04-23T09:10:22.504Z,26.95
2023-04-23T09:11:28.748Z,26.23
2023-04-23T09:12:32.666Z,25.87
2023-04-23T09:13:36.846Z,25.79
2023-04-23T09:14:41.391Z,26.14
2023-04-23T09:15:45.499Z,26.40
2023-04-23T09:16:49.480Z,27.28
2023-04-23T09:17:53.240Z,27.96
2023-04-23T09:18:57.165Z,28.51
2023-04-23T09:20:01.165Z,27.82
2023-04-23T09:21:07.511Z,26.91
2023-04-23T09:22:15.382Z,25.89
2023-04-23T09:23:20.882Z,25.86
2023-04-23T09:24:24.581Z,26.15
2023-04-23T09:25:27.367Z,26.16
2023-04-23T09:26:31.724Z,26.02
2023-04-23T09:27:37.776Z,26.34
2023-04-23T09:28:42.569Z,26.46
2023-04-23T09:29:48.590Z,26.50
2023-04-23T09:30:52.208Z,26.07
2023-04-23T09:31:55.695Z,25.69
2023-04-23T09:32:59.330Z,25.46
2023-04-23T09:34:02.502Z,25.69
2023-04-23T09:35:07.133Z,25.57
2023-04-23T09:36:13.464Z,25.47
2023-04-23T09:37:18.996Z,25.26
2023-04-23T09:38:22.677Z,25.04
2023-04-23T09:39:27.748Z,25.13
2023-04-23T09:40:31.098Z,24.60
2023-04-23T09:41:34.268Z,24.87
2023-04-23T09:42:37.347Z,25.20
2023-04-23T09:43:42.679Z,25.48
2023-04-23T09:44:46.115Z,26.11
2023-04-23T09:45:50.497Z,27.10
2023-04-23T09:46:54.022Z,27.20
2023-04-23T09:48:03.759Z,27.29
2023-04-23T09:49:12.252Z,27.46
2023-04-23T09:50:15.762Z,27.55
2023-04-23T09:51:19.575Z,27.09
2023-04-23T09:52:23.335Z,27.00
2023-04-23T09:53:28.640Z,27.28
2023-04-23T09:54:32.309Z,27.33
2023-04-23T09:55:37.042Z,27.26
2023-04-23T09:56:39.921Z,26.80
2023-04-23T09:57:45.021Z,26.25
2023-04-23T09:58:48.287Z,26.16
2023-04-23T09:59:57.365Z,26.08
2023-04-23T10:01:02.264Z,25.21
2023-04-23T10:02:07.314Z,25.21
2023-04-23T10:03:11.204Z,25.44
2023-04-23T10:04:23.443Z,25.64
2023-04-23T10:05:34.182Z,25.96
2023-04-23T10:06:44.360Z,26.41
2023-04-23T10:07:41.537Z,25.85
2023-04-23T10:08:46.477Z,25.23
2023-04-23T10:09:49.970Z,25.43
2023-04-23T10:11:05.990Z,25.40
2023-04-23T10:12:00.311Z,25.75
2023-04-23T10:13:03.832Z,25.30
2023-04-23T10:14:09.828Z,24.90
2023-04-23T10:15:15.679Z,24.94
2023-04-23T10:16:24.422Z,24.57
2023-04-23T10:17:27.389Z,24.52
2023-04-23T10:18:32.842Z,24.55
2023-04-23T10:19:41.215Z,24.29
2023-04-23T10:20:44.689Z,24.27
2023-04-23T10:23:05.901Z,24.58
2023-04-23T10:24:10.509Z,24.68
2023-04-23T10:25:13.808Z,25.49
2023-04-23T10:26:17.215Z,24.88
2023-04-23T10:28:31.531Z,24.59
2023-04-23T10:29:35.672Z,24.46
2023-04-23T10:30:41.165Z,24.72
2023-04-23T10:31:46.486Z,24.65
2023-04-23T10:32:51.007Z,24.47
2023-04-23T10:33:59.175Z,24.38
2023-04-23T10:35:05.000Z,24.31
2023-04-23T10:36:07.557Z,24.38
2023-04-23T10:37:12.844Z,24.08
2023-04-23T10:38:16.146Z,23.90
2023-04-23T10:39:29.432Z,24.50
2023-04-23T10:40:30.260Z,24.61
2023-04-23T10:41:38.022Z,24.22
2023-04-23T10:42:41.240Z,24.13
2023-04-23T10:43:43.699Z,24.12
2023-04-23T10:44:58.149Z,24.36
2023-04-23T10:45:52.375Z,24.44
2023-04-23T10:46:57.648Z,24.43
2023-04-23T10:48:01.822Z,24.28
2023-04-23T10:49:14.958Z,23.46
2023-04-23T10:52:51.734Z,23.00
2023-04-23T10:53:55.229Z,23.01
2023-04-23T10:54:59.778Z,23.41
2023-04-23T10:56:10.808Z,23.85
2023-04-23T10:57:14.987Z,24.12
2023-04-23T10:58:18.660Z,24.06
2023-04-23T10:59:21.343Z,23.80
2023-04-23T11:00:25.672Z,23.78
2023-04-23T11:01:31.073Z,23.96
2023-04-23T11:02:37.355Z,23.97
2023-04-23T11:03:44.603Z,24.19
2023-04-23T11:04:49.741Z,24.38
2023-04-23T11:05:53.223Z,24.12
2023-04-23T11:06:57.883Z,24.11
2023-04-23T11:08:18.202Z,24.27
2023-04-23T11:09:30.893Z,24.06
2023-04-23T11:10:33.781Z,24.20
2023-04-23T11:11:40.052Z,24.55
2023-04-23T11:12:46.662Z,24.73
2023-04-23T11:13:55.044Z,24.47
2023-04-23T11:15:00.672Z,24.62
2023-04-23T11:16:22.404Z,24.77
2023-04-23T11:17:33.702Z,24.45
2023-04-23T11:18:56.328Z,24.74
2023-04-23T11:20:16.690Z,24.69
2023-04-23T11:21:20.106Z,24.40
2023-04-23T11:22:24.653Z,24.48
2023-04-23T11:23:34.127Z,24.35
2023-04-23T11:24:40.529Z,24.51
2023-04-23T11:25:43.565Z,24.65
2023-04-23T11:26:47.133Z,24.57
2023-04-23T11:27:51.995Z,24.50
2023-04-23T11:28:55.707Z,24.10
2023-04-23T11:30:00.093Z,23.98
2023-04-23T11:31:03.867Z,23.94
2023-04-23T11:32:12.468Z,24.20
2023-04-23T11:33:16.332Z,24.30
2023-04-23T11:34:20.042Z,24.21
2023-04-23T11:35:28.014Z,24.28
2023-04-23T11:36:32.476Z,24.20
2023-04-23T11:37:37.958Z,24.01
2023-04-23T11:38:41.772Z,23.98
2023-04-23T11:39:45.389Z,23.57
2023-04-23T11:40:49.201Z,23.97
2023-04-23T11:41:53.541Z,23.79
2023-04-23T11:42:58.199Z,23.99
2023-04-23T11:44:01.390Z,23.88
2023-04-23T11:45:09.611Z,23.42
2023-04-23T11:46:15.074Z,23.26
2023-04-23T11:47:18.618Z,23.41
2023-04-23T11:48:21.265Z,23.27
2023-04-23T11:49:25.252Z,23.28
2023-04-23T11:50:30.253Z,23.51
2023-04-23T11:51:34.518Z,23.39
2023-04-23T11:52:39.596Z,23.45
2023-04-23T11:53:48.382Z,23.30
2023-04-23T11:54:51.791Z,23.50
2023-04-23T11:55:55.422Z,23.67
2023-04-23T11:57:00.165Z,23.63
2023-04-23T11:58:03.156Z,23.41
2023-04-23T11:59:06.478Z,23.29
2023-04-23T12:00:16.928Z,23.18
2023-04-23T12:01:21.070Z,23.33
2023-04-23T12:02:26.666Z,23.52
2023-04-23T12:03:32.182Z,23.50
2023-04-23T12:04:35.210Z,23.76
2023-04-23T12:05:42.992Z,23.65
2023-04-23T12:06:47.055Z,23.60
2023-04-23T12:07:53.281Z,23.50
2023-04-23T12:08:56.917Z,23.41
2023-04-23T12:10:01.238Z,23.45
2023-04-23T12:11:06.927Z,23.42
2023-04-23T12:12:13.270Z,23.39
2023-04-23T12:13:19.289Z,23.65
2023-04-23T12:14:27.361Z,23.68
2023-04-23T12:15:31.073Z,23.53
2023-04-23T12:16:36.022Z,23.73
2023-04-23T12:17:41.270Z,23.45
2023-04-23T12:18:45.556Z,23.50
2023-04-23T12:19:49.364Z,23.71
2023-04-23T12:20:52.621Z,23.67
2023-04-23T12:21:59.834Z,23.86
2023-04-23T12:23:08.297Z,24.00
2023-04-23T12:24:11.856Z,23.83
2023-04-23T12:25:15.469Z,23.95
2023-04-23T12:26:20.640Z,23.60
2023-04-23T12:27:24.356Z,23.54
2023-04-23T12:28:27.445Z,23.06
2023-04-23T12:29:32.030Z,23.23
2023-04-23T12:30:36.123Z,23.43
2023-04-23T12:31:39.610Z,23.42
2023-04-23T12:32:44.141Z,23.21
2023-04-23T12:33:46.953Z,23.38
2023-04-23T12:34:56.922Z,23.45
2023-04-23T12:36:02.522Z,23.43
2023-04-23T12:37:06.440Z,23.39
2023-04-23T12:38:11.836Z,23.38
2023-04-23T12:39:21.186Z,23.59
2023-04-23T12:40:25.656Z,23.33
2023-04-23T12:41:31.697Z,23.49
2023-04-23T12:42:40.511Z,23.41
2023-04-23T12:43:46.505Z,22.96
2023-04-23T12:44:51.630Z,22.94
2023-04-23T12:45:56.637Z,23.24
2023-04-23T12:47:01.004Z,23.19
2023-04-23T12:48:04.495Z,23.02
2023-04-23T12:49:08.088Z,22.91
2023-04-23T12:50:11.378Z,22.97
2023-04-23T12:51:14.438Z,22.88
2023-04-23T12:52:18.623Z,22.94
2023-04-23T12:53:21.785Z,23.06
2023-04-23T12:54:29.630Z,23.06
2023-04-23T12:55:33.192Z,23.21
2023-04-23T12:56:38.593Z,23.31
2023-04-23T12:57:41.671Z,22.85
2023-04-23T12:58:44.961Z,22.60
2023-04-23T12:59:48.459Z,22.78
2023-04-23T13:00:55.521Z,22.79
2023-04-23T13:02:00.344Z,23.03
2023-04-23T13:03:04.161Z,22.95
2023-04-23T13:04:08.257Z,22.83
2023-04-23T13:05:10.793Z,22.89
2023-04-23T13:06:14.194Z,23.17
2023-04-23T13:07:19.493Z,22.77
2023-04-23T13:08:22.728Z,22.67
2023-04-23T13:09:27.636Z,22.59
2023-04-23T13:10:30.372Z,22.73
2023-04-23T13:11:33.917Z,22.77
2023-04-23T13:12:38.397Z,22.90
2023-04-23T13:13:41.439Z,22.70
2023-04-23T13:14:44.741Z,22.33
2023-04-23T13:15:49.197Z,22.20
2023-04-23T13:16:53.568Z,22.22
2023-04-23T13:17:57.046Z,22.36
2023-04-23T13:18:59.795Z,22.48
2023-04-23T13:20:02.784Z,22.68
2023-04-23T13:21:06.488Z,22.80
2023-04-23T13:22:10.542Z,22.78
2023-04-23T13:23:14.800Z,22.96
2023-04-23T13:24:18.167Z,22.97
2023-04-23T13:25:21.566Z,22.93
2023-04-23T13:26:29.693Z,22.97
2023-04-23T13:27:33.905Z,22.98
2023-04-23T13:28:37.397Z,23.01
2023-04-23T13:29:41.367Z,22.92
2023-04-23T13:30:44.000Z,22.77
2023-04-23T13:31:49.255Z,23.06
2023-04-23T13:32:53.745Z,22.97
2023-04-23T13:33:56.412Z,22.97
2023-04-23T13:35:00.945Z,23.08
2023-04-23T13:36:04.656Z,23.06
2023-04-23T13:37:09.834Z,23.12
2023-04-23T13:38:15.762Z,22.86
2023-04-23T13:39:21.231Z,22.42
2023-04-23T13:40:24.373Z,22.48
2023-04-23T13:41:27.927Z,22.32
2023-04-23T13:42:31.658Z,22.50
2023-04-23T13:43:35.145Z,22.71
2023-04-23T13:44:38.315Z,22.69
2023-04-23T13:45:43.663Z,22.50
2023-04-23T13:46:46.196Z,22.59
2023-04-23T13:47:49.694Z,22.29
2023-04-23T13:48:56.768Z,22.34
2023-04-23T13:50:01.164Z,22.49
2023-04-23T13:51:11.468Z,22.33
2023-04-23T13:52:10.591Z,22.19
2023-04-23T13:53:15.359Z,22.29
2023-04-23T13:54:18.760Z,22.60
2023-04-23T13:55:22.140Z,22.47
2023-04-23T13:56:27.267Z,22.43
2023-04-23T13:57:30.322Z,22.47
2023-04-23T13:58:34.062Z,22.35
2023-04-23T13:59:38.912Z,22.34